createdAt,value
2019-03-30T00:01:41.989Z,99.90
2019-03-30T00:04:11.353Z,99.90
2019-03-30T00:06:40.747Z,99.90
2019-03-30T00:09:10.238Z,99.90
2019-03-30T00:11:39.790Z,99.90
2019-03-30T00:14:09.200Z,99.90
2019-03-30T00:16:38.653Z,99.90
2019-03-30T00:19:08.053Z,99.90
2019-03-30T00:21:37.506Z,99.90
2019-03-30T00:24:06.884Z,99.90
2019-03-30T00:26:36.331Z,99.90
2019-03-30T00:29:05.734Z,99.90
2019-03-30T00:31:35.222Z,99.90
2019-03-30T00:34:04.813Z,99.90
2019-03-30T00:36:34.157Z,99.90
2019-03-30T00:39:05.558Z,99.90
2019-03-30T00:41:34.931Z,99.90
2019-03-30T00:44:04.550Z,99.90
2019-03-30T00:46:33.944Z,99.90
2019-03-30T00:49:03.310Z,99.90
2019-03-30T00:51:32.725Z,99.90
2019-03-30T00:54:02.077Z,99.90
2019-03-30T00:56:31.432Z,99.90
2019-03-30T00:59:00.761Z,99.90
2019-03-30T01:01:30.099Z,99.90
2019-03-30T01:03:59.495Z,99.90
2019-03-30T01:06:28.905Z,99.90
2019-03-30T01:08:58.304Z,99.90
2019-03-30T01:11:27.779Z,99.90
2019-03-30T01:13:57.216Z,99.90
2019-03-30T01:16:26.696Z,99.90
2019-03-30T01:18:56.235Z,99.90
2019-03-30T01:21:25.657Z,99.90
2019-03-30T01:23:55.002Z,99.90
2019-03-30T01:26:24.353Z,99.90
2019-03-30T01:28:53.785Z,99.90
2019-03-30T01:31:23.129Z,99.90
2019-03-30T01:33:52.533Z,99.90
2019-03-30T01:36:21.957Z,99.90
2019-03-30T01:38:51.356Z,99.90
2019-03-30T01:41:20.714Z,99.90
2019-03-30T01:43:50.152Z,99.90
2019-03-30T01:46:19.542Z,99.90
2019-03-30T01:48:48.908Z,99.90
2019-03-30T01:51:18.237Z,99.90
2019-03-30T01:53:47.641Z,99.90
2019-03-30T01:56:16.985Z,99.90
2019-03-30T01:58:46.339Z,99.90
2019-03-30T02:01:15.892Z,99.90
2019-03-30T02:03:45.373Z,99.90
2019-03-30T02:06:14.772Z,99.90
2019-03-30T02:08:44.133Z,99.90
2019-03-30T02:11:13.628Z,99.90
2019-03-30T02:13:43.102Z,99.90
2019-03-30T02:16:12.501Z,99.90
2019-03-30T02:18:41.999Z,99.90
2019-03-30T02:21:11.397Z,99.90
2019-03-30T02:23:40.822Z,99.90
2019-03-30T02:26:10.357Z,99.90
2019-03-30T02:28:39.788Z,99.90
2019-03-30T02:31:09.345Z,99.90
2019-03-30T02:33:38.861Z,99.90
2019-03-30T02:36:08.429Z,99.90
2019-03-30T02:38:37.739Z,99.90
2019-03-30T02:41:07.094Z,99.90
2019-03-30T02:43:36.482Z,99.90
2019-03-30T02:46:05.901Z,99.90
2019-03-30T02:48:35.415Z,99.90
2019-03-30T02:51:04.946Z,99.90
2019-03-30T02:53:34.299Z,99.90
2019-03-30T02:56:03.756Z,99.90
2019-03-30T02:58:33.161Z,99.90
2019-03-30T03:01:02.582Z,99.90
2019-03-30T03:03:31.988Z,99.90
2019-03-30T03:06:01.488Z,99.90
2019-03-30T03:08:30.894Z,99.90
2019-03-30T03:11:00.449Z,99.90
2019-03-30T03:13:29.863Z,99.90
2019-03-30T03:15:59.298Z,99.90
2019-03-30T03:18:28.854Z,99.90
2019-03-30T03:21:07.390Z,99.90
2019-03-30T03:23:29.344Z,99.90
2019-03-30T03:25:58.741Z,99.90
2019-03-30T03:28:28.191Z,99.90
2019-03-30T03:30:57.625Z,99.90
2019-03-30T03:33:27.286Z,99.90
2019-03-30T03:35:56.720Z,99.90
2019-03-30T03:38:26.076Z,99.90
2019-03-30T03:40:55.552Z,99.90
2019-03-30T03:43:24.994Z,99.90
2019-03-30T03:45:54.367Z,99.90
2019-03-30T03:48:23.852Z,99.90
2019-03-30T03:51:00.149Z,99.90
2019-03-30T03:53:30.175Z,99.90
2019-03-30T03:56:01.242Z,99.90
2019-03-30T03:58:33.828Z,99.90
2019-03-30T04:01:04.121Z,99.90
2019-03-30T04:03:34.342Z,99.90
2019-03-30T04:06:06.829Z,99.90
2019-03-30T04:08:36.631Z,99.90
2019-03-30T04:11:07.024Z,99.90
2019-03-30T04:13:37.231Z,99.90
2019-03-30T04:16:06.734Z,99.90
2019-03-30T04:18:36.234Z,99.90
2019-03-30T04:21:05.578Z,99.90
2019-03-30T04:23:35.026Z,99.90
2019-03-30T04:26:04.498Z,99.90
2019-03-30T04:28:34.028Z,99.90
2019-03-30T04:31:03.403Z,99.90
2019-03-30T04:33:32.717Z,99.90
2019-03-30T04:36:02.105Z,99.90
2019-03-30T04:38:31.441Z,99.90
2019-03-30T04:41:00.810Z,99.90
2019-03-30T04:43:30.180Z,99.90
2019-03-30T04:45:59.511Z,99.90
2019-03-30T04:48:29.663Z,99.90
2019-03-30T04:50:59.276Z,99.90
2019-03-30T04:53:28.671Z,99.90
2019-03-30T04:55:57.999Z,99.90
2019-03-30T04:58:27.427Z,99.90
2019-03-30T05:00:56.880Z,99.90
2019-03-30T05:03:26.336Z,99.90
2019-03-30T05:05:55.736Z,99.90
2019-03-30T05:08:25.084Z,99.90
2019-03-30T05:10:54.596Z,99.90
2019-03-30T05:13:24.033Z,99.90
2019-03-30T05:15:53.439Z,99.90
2019-03-30T05:18:22.874Z,99.90
2019-03-30T05:20:53.190Z,99.90
2019-03-30T05:23:22.542Z,99.90
2019-03-30T05:25:51.904Z,99.90
2019-03-30T05:28:21.365Z,99.90
2019-03-30T05:30:50.853Z,99.90
2019-03-30T05:33:20.229Z,99.90
2019-03-30T05:35:49.634Z,99.90
2019-03-30T05:38:19.038Z,99.90
2019-03-30T05:40:48.398Z,99.90
2019-03-30T05:43:17.786Z,99.90
2019-03-30T05:45:47.131Z,99.90
2019-03-30T05:48:16.470Z,99.90
2019-03-30T05:50:45.912Z,99.90
2019-03-30T05:53:15.337Z,99.90
2019-03-30T05:55:44.747Z,99.90
2019-03-30T05:58:14.309Z,99.90
2019-03-30T06:00:43.657Z,99.90
2019-03-30T06:03:13.014Z,99.90
2019-03-30T06:05:42.577Z,99.90
2019-03-30T06:08:12.016Z,99.90
2019-03-30T06:10:41.468Z,99.90
2019-03-30T06:13:10.825Z,99.90
2019-03-30T06:15:40.209Z,99.90
2019-03-30T06:18:11.339Z,99.90
2019-03-30T06:20:40.678Z,99.90
2019-03-30T06:23:10.147Z,99.90
2019-03-30T06:25:39.579Z,99.90
2019-03-30T06:28:09.223Z,99.90
2019-03-30T06:30:38.661Z,99.90
2019-03-30T06:33:08.004Z,99.90
2019-03-30T06:35:37.357Z,99.90
2019-03-30T06:38:06.708Z,99.90
2019-03-30T06:40:36.351Z,99.90
2019-03-30T06:43:07.732Z,99.90
2019-03-30T06:45:37.099Z,99.90
2019-03-30T06:48:06.606Z,99.90
2019-03-30T06:50:35.990Z,99.90
2019-03-30T06:53:05.615Z,99.90
2019-03-30T06:55:35.002Z,99.90
2019-03-30T06:58:04.364Z,99.90
2019-03-30T07:00:35.181Z,99.90
2019-03-30T07:03:06.408Z,99.90
2019-03-30T07:05:42.782Z,99.90
2019-03-30T07:08:17.478Z,99.90
2019-03-30T07:10:47.585Z,99.90
2019-03-30T07:13:17.175Z,99.90
2019-03-30T07:15:47.652Z,99.90
2019-03-30T07:18:17.785Z,99.90
2019-03-30T07:20:47.193Z,99.90
2019-03-30T07:23:16.945Z,99.90
2019-03-30T07:25:46.554Z,99.90
2019-03-30T07:28:16.024Z,99.90
2019-03-30T07:30:45.664Z,99.90
2019-03-30T07:33:15.022Z,99.90
2019-03-30T07:35:44.474Z,99.90
2019-03-30T07:38:13.947Z,99.90
2019-03-30T07:40:43.520Z,99.90
2019-03-30T07:43:12.930Z,99.90
2019-03-30T07:45:42.279Z,99.90
2019-03-30T07:48:11.618Z,99.90
2019-03-30T07:50:41.095Z,99.90
2019-03-30T07:53:25.032Z,99.90
2019-03-30T07:55:41.675Z,99.90
2019-03-30T07:58:11.159Z,99.90
2019-03-30T08:00:40.653Z,99.90
2019-03-30T08:03:10.119Z,99.90
2019-03-30T08:05:39.450Z,99.90
2019-03-30T08:08:08.946Z,99.90
2019-03-30T08:10:38.511Z,99.90
2019-03-30T08:13:08.162Z,99.90
2019-03-30T08:15:37.532Z,99.90
2019-03-30T08:18:06.912Z,99.90
2019-03-30T08:20:36.366Z,99.90
2019-03-30T08:23:05.929Z,99.90
2019-03-30T08:25:35.320Z,99.90
2019-03-30T08:28:04.673Z,99.90
2019-03-30T08:30:34.233Z,99.90
2019-03-30T08:33:03.642Z,99.90
2019-03-30T08:35:33.006Z,99.90
2019-03-30T08:38:02.439Z,99.90
2019-03-30T08:40:31.992Z,99.90
2019-03-30T08:43:01.561Z,99.90
2019-03-30T08:45:31.601Z,99.90
2019-03-30T08:48:01.339Z,99.90
2019-03-30T08:50:30.793Z,99.90
2019-03-30T08:53:00.188Z,99.90
2019-03-30T08:55:29.819Z,99.90
2019-03-30T08:57:59.312Z,99.90
2019-03-30T09:00:39.234Z,99.90
2019-03-30T09:03:08.818Z,99.90
2019-03-30T09:05:38.538Z,99.90
2019-03-30T09:08:10.201Z,99.90
2019-03-30T09:10:39.829Z,99.90
2019-03-30T09:13:09.248Z,99.90
2019-03-30T09:15:38.700Z,99.90
2019-03-30T09:18:08.066Z,99.90
2019-03-30T09:20:37.696Z,99.90
2019-03-30T09:23:07.194Z,99.90
2019-03-30T09:25:36.589Z,99.90
2019-03-30T09:28:05.952Z,99.90
2019-03-30T09:30:35.388Z,99.90
2019-03-30T09:33:04.867Z,99.90
2019-03-30T09:35:34.423Z,99.90
2019-03-30T09:38:03.812Z,99.90
2019-03-30T09:40:33.264Z,99.90
2019-03-30T09:43:02.681Z,99.90
2019-03-30T09:45:32.630Z,99.90
2019-03-30T09:48:02.506Z,99.90
2019-03-30T09:50:31.952Z,99.90
2019-03-30T09:53:01.356Z,99.90
2019-03-30T09:55:30.719Z,99.90
2019-03-30T09:58:00.376Z,99.90
2019-03-30T10:00:29.729Z,99.90
2019-03-30T10:02:59.102Z,99.90
2019-03-30T10:05:28.482Z,99.90
2019-03-30T10:07:57.916Z,99.90
2019-03-30T10:10:27.421Z,99.90
2019-03-30T10:12:56.960Z,99.90
2019-03-30T10:15:26.372Z,99.30
2019-03-30T10:17:55.810Z,99.40
2019-03-30T10:20:25.176Z,98.60
2019-03-30T10:22:54.581Z,97.40
2019-03-30T10:25:23.959Z,96.90
2019-03-30T10:27:53.327Z,96.20
2019-03-30T10:30:22.752Z,95.90
2019-03-30T10:32:52.235Z,96.10
2019-03-30T10:35:21.631Z,95.50
2019-03-30T10:37:51.115Z,94.80
2019-03-30T10:40:20.957Z,93.40
2019-03-30T10:42:50.645Z,93.40
2019-03-30T10:45:20.184Z,92.70
2019-03-30T10:47:49.557Z,92.40
2019-03-30T10:50:19.105Z,92.20
2019-03-30T10:52:48.667Z,91.50
2019-03-30T10:55:18.160Z,91.50
2019-03-30T10:57:47.733Z,92.50
2019-03-30T11:00:40.012Z,92.30
2019-03-30T11:03:09.600Z,91.80
2019-03-30T11:05:39.194Z,91.50
2019-03-30T11:08:10.767Z,92.40
2019-03-30T11:10:40.206Z,91.90
2019-03-30T11:13:09.724Z,91.80
2019-03-30T11:15:39.149Z,91.10
2019-03-30T11:18:08.641Z,90.90
2019-03-30T11:20:38.078Z,91.30
2019-03-30T11:23:07.436Z,91.00
2019-03-30T11:25:36.903Z,90.00
2019-03-30T11:28:06.340Z,90.20
2019-03-30T11:30:35.772Z,90.90
2019-03-30T11:33:05.352Z,90.90
2019-03-30T11:35:34.720Z,90.00
2019-03-30T11:38:04.189Z,90.00
2019-03-30T11:40:33.737Z,89.10
2019-03-30T11:43:03.177Z,90.30
2019-03-30T11:45:32.669Z,90.00
2019-03-30T11:48:02.078Z,87.70
2019-03-30T11:50:31.474Z,87.00
2019-03-30T11:53:01.067Z,85.20
2019-03-30T11:55:30.456Z,87.60
2019-03-30T11:57:59.961Z,87.40
2019-03-30T12:00:29.426Z,85.60
2019-03-30T12:02:59.063Z,86.70
2019-03-30T12:05:28.446Z,85.40
2019-03-30T12:07:57.942Z,85.00
2019-03-30T12:10:27.315Z,84.90
2019-03-30T12:12:56.988Z,85.30
2019-03-30T12:15:26.345Z,84.50
2019-03-30T12:17:55.724Z,81.20
2019-03-30T12:20:25.500Z,84.40
2019-03-30T12:22:54.867Z,83.20
2019-03-30T12:25:34.940Z,84.80
2019-03-30T12:27:55.378Z,82.30
2019-03-30T12:30:24.922Z,84.80
2019-03-30T12:32:54.410Z,82.40
2019-03-30T12:35:23.932Z,82.30
2019-03-30T12:37:56.405Z,85.00
2019-03-30T12:40:25.795Z,81.20
2019-03-30T12:42:55.305Z,82.20
2019-03-30T12:45:24.683Z,81.90
2019-03-30T12:47:54.172Z,82.20
2019-03-30T12:50:23.690Z,81.20
2019-03-30T12:52:53.136Z,82.00
2019-03-30T12:55:22.807Z,82.10
2019-03-30T12:57:52.271Z,83.50
2019-03-30T13:00:21.818Z,85.00
2019-03-30T13:02:51.292Z,82.80
2019-03-30T13:05:20.796Z,80.90
2019-03-30T13:07:50.336Z,79.70
2019-03-30T13:10:19.955Z,79.80
2019-03-30T13:12:49.665Z,81.30
2019-03-30T13:15:19.260Z,80.90
2019-03-30T13:17:48.779Z,82.00
2019-03-30T13:20:18.906Z,82.10
2019-03-30T13:22:48.399Z,81.30
2019-03-30T13:25:17.874Z,81.60
2019-03-30T13:27:47.430Z,81.80
2019-03-30T13:30:17.091Z,81.80
2019-03-30T13:32:46.645Z,80.00
2019-03-30T13:35:18.713Z,81.40
2019-03-30T13:37:48.288Z,79.00
2019-03-30T13:40:17.769Z,82.00
2019-03-30T13:42:47.276Z,80.10
2019-03-30T13:45:17.021Z,81.30
2019-03-30T13:47:46.452Z,79.40
2019-03-30T13:50:15.990Z,77.40
2019-03-30T13:52:45.481Z,77.90
2019-03-30T13:55:15.245Z,76.00
2019-03-30T13:57:45.388Z,77.90
2019-03-30T14:00:15.450Z,75.50
2019-03-30T14:02:44.938Z,76.70
2019-03-30T14:05:14.604Z,76.50
2019-03-30T14:07:44.091Z,76.60
2019-03-30T14:10:13.927Z,75.90
2019-03-30T14:12:43.268Z,75.70
2019-03-30T14:15:12.966Z,76.60
2019-03-30T14:17:42.396Z,74.50
2019-03-30T14:20:11.986Z,73.70
2019-03-30T14:22:41.352Z,70.80
2019-03-30T14:25:11.070Z,71.30
2019-03-30T14:27:40.605Z,72.40
2019-03-30T14:30:11.519Z,75.20
2019-03-30T14:32:41.001Z,74.50
2019-03-30T14:35:10.733Z,73.50
2019-03-30T14:37:40.163Z,75.50
2019-03-30T14:40:09.964Z,72.90
2019-03-30T14:42:39.415Z,73.30
2019-03-30T14:45:13.487Z,73.10
2019-03-30T14:47:42.837Z,75.40
2019-03-30T14:50:12.585Z,71.60
2019-03-30T14:52:42.051Z,73.90
2019-03-30T14:55:11.501Z,73.20
2019-03-30T14:57:41.061Z,74.10
2019-03-30T15:00:10.862Z,73.80
2019-03-30T15:02:40.379Z,73.60
2019-03-30T15:05:09.881Z,75.30
2019-03-30T15:07:39.221Z,76.50
2019-03-30T15:10:09.445Z,74.00
2019-03-30T15:12:39.348Z,72.30
2019-03-30T15:15:09.786Z,73.90
2019-03-30T15:17:40.921Z,74.50
2019-03-30T15:20:10.897Z,75.00
2019-03-30T15:22:40.390Z,74.40
2019-03-30T15:25:10.532Z,75.70
2019-03-30T15:27:40.016Z,77.10
2019-03-30T15:30:09.752Z,75.10
2019-03-30T15:32:39.334Z,75.10
2019-03-30T15:35:09.226Z,75.50
2019-03-30T15:37:38.668Z,77.50
2019-03-30T15:40:08.196Z,77.90
2019-03-30T15:42:40.090Z,76.60
2019-03-30T15:45:09.199Z,78.40
2019-03-30T15:47:38.730Z,77.90
2019-03-30T15:50:08.817Z,78.80
2019-03-30T15:52:38.154Z,75.80
2019-03-30T15:55:08.212Z,76.20
2019-03-30T15:57:37.776Z,76.60
2019-03-30T16:00:07.729Z,76.80
2019-03-30T16:02:37.127Z,77.60
2019-03-30T16:05:07.713Z,78.30
2019-03-30T16:07:37.303Z,76.10
2019-03-30T16:10:07.723Z,77.10
2019-03-30T16:12:37.226Z,77.40
2019-03-30T16:15:07.266Z,76.90
2019-03-30T16:17:36.781Z,77.20
2019-03-30T16:20:06.948Z,78.10
2019-03-30T16:22:36.659Z,78.30
2019-03-30T16:25:06.500Z,79.40
2019-03-30T16:27:38.963Z,79.20
2019-03-30T16:30:08.328Z,80.40
2019-03-30T16:32:37.897Z,79.70
2019-03-30T16:35:08.209Z,80.20
2019-03-30T16:37:37.805Z,82.70
2019-03-30T16:40:07.584Z,82.80
2019-03-30T16:42:37.163Z,83.70
2019-03-30T16:45:07.438Z,83.90
2019-03-30T16:47:36.892Z,85.80
2019-03-30T16:50:07.314Z,85.90
2019-03-30T16:52:39.204Z,87.00
2019-03-30T16:55:08.107Z,87.10
2019-03-30T16:57:43.554Z,88.40
2019-03-30T17:00:10.446Z,88.60
2019-03-30T17:02:39.897Z,88.90
2019-03-30T17:05:09.653Z,89.10
2019-03-30T17:07:39.085Z,89.90
2019-03-30T17:10:09.090Z,90.40
2019-03-30T17:12:38.601Z,90.60
2019-03-30T17:15:09.180Z,90.80
2019-03-30T17:17:38.564Z,90.70
2019-03-30T17:20:09.152Z,91.20
2019-03-30T17:22:38.581Z,91.60
2019-03-30T17:25:08.805Z,91.90
2019-03-30T17:27:38.394Z,92.20
2019-03-30T17:30:08.871Z,92.20
2019-03-30T17:32:38.440Z,93.00
2019-03-30T17:35:08.488Z,93.60
2019-03-30T17:37:37.891Z,93.70
2019-03-30T17:40:08.437Z,94.10
2019-03-30T17:42:39.008Z,94.70
2019-03-30T17:45:09.513Z,95.10
2019-03-30T17:47:39.319Z,95.50
2019-03-30T17:50:09.466Z,95.70
2019-03-30T17:52:38.885Z,96.10
2019-03-30T17:55:08.724Z,96.30
2019-03-30T17:57:38.208Z,96.90
2019-03-30T18:00:09.142Z,97.20
2019-03-30T18:02:38.505Z,97.50
2019-03-30T18:05:08.412Z,97.60
2019-03-30T18:07:37.789Z,97.90
2019-03-30T18:10:07.745Z,98.10
2019-03-30T18:12:37.630Z,98.20
2019-03-30T18:15:08.125Z,98.10
2019-03-30T18:17:37.473Z,98.40
2019-03-30T18:20:07.717Z,98.40
2019-03-30T18:22:37.317Z,98.40
2019-03-30T18:25:07.181Z,98.90
2019-03-30T18:27:36.700Z,99.10
2019-03-30T18:30:08.240Z,99.40
2019-03-30T18:32:37.596Z,99.40
2019-03-30T18:35:07.301Z,99.50
2019-03-30T18:37:38.757Z,99.60
2019-03-30T18:40:08.466Z,99.90
2019-03-30T18:42:37.830Z,99.90
2019-03-30T18:45:09.196Z,99.90
2019-03-30T18:47:38.762Z,99.90
2019-03-30T18:50:08.971Z,99.90
2019-03-30T18:52:40.460Z,99.90
2019-03-30T18:55:15.166Z,99.90
2019-03-30T18:57:45.038Z,99.90
2019-03-30T19:00:17.789Z,99.90
2019-03-30T19:02:47.500Z,99.90
2019-03-30T19:05:17.112Z,99.90
2019-03-30T19:07:47.090Z,99.90
2019-03-30T19:10:16.925Z,99.90
2019-03-30T19:12:48.263Z,99.90
2019-03-30T19:15:17.681Z,99.90
2019-03-30T19:17:47.370Z,99.90
2019-03-30T19:20:16.938Z,99.90
2019-03-30T19:22:46.432Z,99.90
2019-03-30T19:25:15.848Z,99.90
2019-03-30T19:27:45.202Z,99.90
2019-03-30T19:30:14.806Z,99.90
2019-03-30T19:32:44.156Z,99.90
2019-03-30T19:35:13.653Z,99.90
2019-03-30T19:37:42.985Z,99.90
2019-03-30T19:40:12.453Z,99.90
2019-03-30T19:42:41.820Z,99.90
2019-03-30T19:45:11.538Z,99.90
2019-03-30T19:47:40.961Z,99.90
2019-03-30T19:50:10.499Z,99.90
2019-03-30T19:52:40.530Z,99.90
2019-03-30T19:55:10.220Z,99.90
2019-03-30T19:57:39.549Z,99.90
2019-03-30T20:00:09.513Z,99.90
2019-03-30T20:02:39.025Z,99.90
2019-03-30T20:05:08.834Z,99.90
2019-03-30T20:07:38.266Z,99.90
2019-03-30T20:10:08.007Z,99.90
2019-03-30T20:12:37.886Z,99.90
2019-03-30T20:15:09.035Z,99.90
2019-03-30T20:17:38.778Z,99.90
2019-03-30T20:20:08.857Z,99.90
2019-03-30T20:22:38.301Z,99.90
2019-03-30T20:25:08.951Z,99.90
2019-03-30T20:50:00.946Z,99.90
2019-03-30T20:52:30.388Z,99.90
2019-03-30T20:54:59.770Z,99.90
2019-03-30T20:57:29.200Z,99.90
2019-03-30T20:59:58.534Z,99.90
2019-03-30T21:02:27.891Z,99.90
2019-03-30T21:04:57.357Z,99.90
2019-03-30T21:07:26.733Z,99.90
2019-03-30T21:09:56.117Z,99.90
2019-03-30T21:12:25.640Z,99.90
2019-03-30T21:14:55.072Z,99.90
2019-03-30T21:17:24.480Z,99.90
2019-03-30T21:19:53.902Z,99.90
2019-03-30T21:22:23.229Z,99.90
2019-03-30T21:24:52.590Z,99.90
2019-03-30T21:27:22.253Z,99.90
2019-03-30T21:29:54.912Z,99.90
2019-03-30T21:32:22.696Z,99.90
2019-03-30T21:34:52.079Z,99.90
2019-03-30T21:37:21.902Z,99.90
2019-03-30T21:39:51.350Z,99.90
2019-03-30T21:42:20.697Z,99.90
2019-03-30T21:44:50.047Z,99.90
2019-03-30T21:47:19.569Z,99.90
2019-03-30T21:49:48.953Z,99.90
2019-03-30T21:52:18.318Z,99.90
2019-03-30T21:54:47.800Z,99.90
2019-03-30T21:57:17.180Z,99.90
2019-03-30T21:59:46.754Z,99.90
2019-03-30T22:02:22.133Z,99.90
2019-03-30T22:04:51.579Z,99.90
2019-03-30T22:07:21.211Z,99.90
2019-03-30T22:09:50.689Z,99.90
2019-03-30T22:12:20.832Z,99.90
2019-03-30T22:14:50.526Z,99.90
2019-03-30T22:17:19.880Z,99.90
2019-03-30T22:19:49.236Z,99.90
2019-03-30T22:22:18.764Z,99.90
2019-03-30T22:24:48.137Z,99.90
2019-03-30T22:27:17.505Z,99.90
2019-03-30T22:29:46.881Z,99.90
2019-03-30T22:32:16.221Z,99.90
2019-03-30T22:34:45.536Z,99.90
2019-03-30T22:37:14.948Z,99.90
2019-03-30T22:39:44.295Z,99.90
2019-03-30T22:42:13.720Z,99.90
2019-03-30T22:44:43.164Z,99.90
2019-03-30T22:47:12.569Z,99.90
2019-03-30T22:49:41.955Z,99.90
2019-03-30T22:52:11.297Z,99.90
2019-03-30T22:54:40.671Z,99.90
2019-03-30T22:57:10.070Z,99.90
2019-03-30T22:59:39.452Z,99.90
2019-03-30T23:02:09.104Z,99.90
2019-03-30T23:04:38.532Z,99.90
2019-03-30T23:07:08.119Z,99.90
2019-03-30T23:09:37.447Z,99.90
2019-03-30T23:12:06.853Z,99.90
2019-03-30T23:14:36.301Z,99.90
2019-03-30T23:17:05.645Z,99.90
2019-03-30T23:19:35.002Z,99.90
2019-03-30T23:22:04.443Z,99.90
2019-03-30T23:24:33.804Z,99.90
2019-03-30T23:27:03.184Z,99.90
2019-03-30T23:29:32.554Z,99.90
2019-03-30T23:32:01.888Z,99.90
2019-03-30T23:34:31.280Z,99.90
2019-03-30T23:37:00.785Z,99.90
2019-03-30T23:39:30.153Z,99.90
2019-03-30T23:41:59.482Z,99.90
2019-03-30T23:44:28.899Z,99.90
2019-03-30T23:46:58.330Z,99.90
2019-03-30T23:49:27.696Z,99.90
2019-03-30T23:51:57.065Z,99.90
2019-03-30T23:54:26.398Z,99.90
2019-03-30T23:56:55.816Z,99.90
2019-03-30T23:59:25.168Z,99.90
